Time;durP1;ratioP1;P1;durP2;ratioP2;P2;SDS_P1;SDS_P2;PMS_P1;PMS_P2;Temp;Humidity;BMP_temperature;BMP_pressure;BME280_temperature;BME280_humidity;BME280_pressure;Samples;Min_cycle;Max_cycle;Signal;HPM_P1;HPM_P2
2022/08/10 00:00:48;;;;;;;2.75;1.90;;;;;;;18.57;63.78;102568.94;4893129;29;20785;-47
2022/08/10 00:03:13;;;;;;;6.10;2.20;;;;;;;18.53;63.76;102568.34;4880470;29;20029;-47
2022/08/10 00:05:38;;;;;;;3.22;1.85;;;;;;;18.58;63.66;102565.28;4890356;29;20047;-46
2022/08/10 00:08:04;;;;;;;2.77;2.40;;;;;;;18.53;63.69;102572.88;4898760;29;20392;-46
2022/08/10 00:10:30;;;;;;;3.22;1.90;;;;;;;18.43;64.48;102570.94;4898191;29;20287;-46
2022/08/10 00:12:55;;;;;;;4.32;1.90;;;;;;;18.40;63.33;102573.91;4898692;29;20032;-45
2022/08/10 00:15:23;;;;;;;3.90;2.00;;;;;;;18.41;64.27;102574.75;4892550;29;20040;-44
2022/08/10 00:17:48;;;;;;;7.28;2.10;;;;;;;18.40;64.18;102568.53;4898601;29;20040;-46
2022/08/10 00:20:15;;;;;;;4.20;2.05;;;;;;;18.34;64.06;102570.88;4885115;29;20416;-49
2022/08/10 00:22:40;;;;;;;3.58;2.33;;;;;;;18.25;64.56;102567.97;4897823;29;20370;-45
2022/08/10 00:25:07;;;;;;;5.35;2.38;;;;;;;18.21;64.67;102563.78;4894765;29;20029;-47
2022/08/10 00:27:33;;;;;;;2.83;2.10;;;;;;;18.23;65.03;102561.81;4898219;29;20108;-47
2022/08/10 00:29:58;;;;;;;3.03;2.20;;;;;;;18.16;64.84;102560.63;4896962;29;20116;-47
2022/08/10 00:32:23;;;;;;;4.05;1.95;;;;;;;18.15;64.92;102561.59;4893448;29;20028;-46
2022/08/10 00:34:49;;;;;;;3.63;2.53;;;;;;;18.09;65.33;102554.91;4884010;29;20045;-44
2022/08/10 00:37:16;;;;;;;2.10;2.00;;;;;;;18.09;64.83;102552.19;4879722;29;20401;-47
2022/08/10 00:39:42;;;;;;;2.60;2.40;;;;;;;18.07;64.87;102556.00;4892759;29;20485;-46
2022/08/10 00:42:08;;;;;;;4.65;2.25;;;;;;;18.03;65.01;102547.31;4888088;29;20088;-46
2022/08/10 00:44:42;;;;;;;3.42;2.28;;;;;;;18.03;64.71;102547.31;4885176;29;20029;-48
2022/08/10 00:47:09;;;;;;;3.58;2.10;;;;;;;18.01;65.26;102551.13;4879925;29;20489;-47
2022/08/10 00:49:34;;;;;;;3.90;2.38;;;;;;;17.98;64.94;102544.16;4879960;29;20025;-49
2022/08/10 00:52:01;;;;;;;4.57;2.60;;;;;;;17.91;66.24;102551.00;4877866;29;20060;-46
2022/08/10 00:54:27;;;;;;;4.30;2.45;;;;;;;17.93;65.32;102549.06;4882769;29;20025;-48
2022/08/10 00:56:52;;;;;;;3.08;2.17;;;;;;;17.91;65.34;102551.00;4880067;29;20370;-47
2022/08/10 00:59:18;;;;;;;2.35;2.10;;;;;;;17.91;64.67;102545.63;4887437;29;20037;-50
2022/08/10 01:01:43;;;;;;;3.05;2.35;;;;;;;17.87;65.31;102541.47;4879845;29;20036;-47
2022/08/10 01:04:08;;;;;;;2.72;2.33;;;;;;;17.84;65.29;102542.56;4879593;29;20035;-48
2022/08/10 01:06:40;;;;;;;3.33;2.30;;;;;;;17.83;65.46;102548.91;4888834;29;20056;-48
2022/08/10 01:09:38;;;;;;;3.00;2.17;;;;;;;17.84;64.62;102542.56;4884248;29;20507;-47
2022/08/10 01:12:13;;;;;;;3.97;2.60;;;;;;;17.75;65.45;102541.47;4880860;29;20041;-49
2022/08/10 01:15:00;;;;;;;2.53;2.33;;;;;;;17.74;64.95;102541.59;4897844;29;20020;-46
2022/08/10 01:17:41;;;;;;;3.35;2.40;;;;;;;17.68;65.47;102534.00;4895136;29;20995;-46
2022/08/10 01:20:24;;;;;;;3.92;2.47;;;;;;;17.66;65.33;102535.97;4879097;29;20029;-50
2022/08/10 01:23:01;;;;;;;2.50;2.30;;;;;;;17.64;65.59;102522.66;4879251;29;20029;-47
2022/08/10 01:25:55;;;;;;;8.68;2.60;;;;;;;17.64;65.06;102529.88;4878745;29;20041;-45
2022/08/10 01:28:49;;;;;;;4.28;2.45;;;;;;;17.61;65.44;102528.28;4879128;29;20036;-46
2022/08/10 01:31:19;;;;;;;2.75;2.50;;;;;;;17.53;66.71;102536.94;4875867;29;20033;-49
2022/08/10 01:33:56;;;;;;;5.28;2.60;;;;;;;17.53;66.20;102528.88;4879025;29;20025;-48
2022/08/10 01:36:29;;;;;;;2.55;2.35;;;;;;;17.51;66.20;102533.53;4878762;29;20036;-46
2022/08/10 01:38:59;;;;;;;4.75;2.65;;;;;;;17.47;66.97;102537.44;4879469;29;20041;-48
2022/08/10 01:41:26;;;;;;;;;;;;;;;17.57;64.45;102533.03;4879904;29;20040;-47
2022/08/10 01:43:58;;;;;;;2.60;2.40;;;;;;;17.46;66.34;102535.72;4878930;29;20384;-47
2022/08/10 01:46:25;;;;;;;5.32;2.90;;;;;;;17.44;66.70;102539.53;4879401;29;20029;-47
2022/08/10 01:48:54;;;;;;;2.67;2.47;;;;;;;17.41;66.82;102534.38;4879679;29;20033;-45
2022/08/10 01:51:37;;;;;;;3.40;2.90;;;;;;;17.38;66.58;102530.94;4878903;29;20060;-45
2022/08/10 01:54:06;;;;;;;3.50;2.42;;;;;;;17.33;67.35;102532.28;4879786;29;20474;-49
2022/08/10 01:56:35;;;;;;;4.57;2.70;;;;;;;17.28;67.32;102537.19;4878854;29;20021;-47
2022/08/10 01:59:06;;;;;;;4.53;2.63;;;;;;;17.29;67.37;102534.38;4891684;29;20035;-45
2022/08/10 02:01:36;;;;;;;2.75;2.55;;;;;;;17.26;67.44;102528.41;4878843;29;20037;-45
2022/08/10 02:04:08;;;;;;;4.85;2.70;;;;;;;17.21;67.86;102526.06;4878257;29;20516;-49
2022/08/10 02:06:38;;;;;;;2.92;2.72;;;;;;;17.19;67.63;102533.38;4879062;29;20036;-48
2022/08/10 02:09:05;;;;;;;4.10;2.63;;;;;;;17.15;68.08;102527.41;4879476;29;20025;-48
2022/08/10 02:11:31;;;;;;;3.15;2.95;;;;;;;17.12;68.32;102533.00;4878746;29;20071;-47
2022/08/10 02:13:58;;;;;;;9.75;3.10;;;;;;;17.13;68.05;102531.16;4879723;29;20057;-46
2022/08/10 02:16:25;;;;;;;4.82;2.83;;;;;;;17.09;68.40;102533.25;4878657;29;20064;-47
2022/08/10 02:18:52;;;;;;;4.43;3.00;;;;;;;17.06;68.64;102532.63;4879750;29;20469;-50
2022/08/10 02:21:19;;;;;;;4.20;2.70;;;;;;;17.06;68.39;102535.31;4879713;29;20033;-46
2022/08/10 02:23:45;;;;;;;4.72;3.10;;;;;;;17.05;68.37;102525.53;4871221;29;20033;-49
2022/08/10 02:26:11;;;;;;;3.45;2.80;;;;;;;17.01;68.55;102527.63;4879584;29;20416;-47
2022/08/10 02:28:38;;;;;;;3.13;2.92;;;;;;;17.01;68.63;102524.94;4878825;29;20029;-48
2022/08/10 02:31:08;;;;;;;4.05;3.05;;;;;;;16.96;68.82;102521.75;4879346;29;20533;-48
2022/08/10 02:33:35;;;;;;;5.10;2.83;;;;;;;16.93;68.84;102519.28;4879120;29;20033;-48
2022/08/10 02:36:04;;;;;;;2.75;2.55;;;;;;;16.95;68.92;102534.31;4878589;29;20374;-47
2022/08/10 02:38:33;;;;;;;3.25;2.95;;;;;;;16.93;69.22;102530.03;4878076;29;20029;-47
2022/08/10 02:41:06;;;;;;;4.90;3.20;;;;;;;16.91;68.82;102529.31;4878311;29;20408;-47
2022/08/10 02:43:44;;;;;;;5.07;3.65;;;;;;;16.91;68.98;102531.97;4878451;29;20048;-48
2022/08/10 02:46:15;;;;;;;3.58;3.00;;;;;;;16.90;69.13;102524.88;4876581;29;20501;-49
2022/08/10 02:48:45;;;;;;;4.22;3.40;;;;;;;16.86;69.16;102531.47;4878155;29;20041;-47
2022/08/10 02:51:18;;;;;;;3.50;2.92;;;;;;;16.85;69.20;102529.75;4878219;29;20445;-49
2022/08/10 02:53:54;;;;;;;5.25;3.08;;;;;;;16.84;69.18;102515.47;4877488;29;20033;-47
2022/08/10 02:56:30;;;;;;;3.95;3.53;;;;;;;16.79;69.53;102517.66;4875986;29;20055;-47
2022/08/10 02:59:04;;;;;;;3.80;3.40;;;;;;;16.74;69.52;102515.31;4877595;29;20025;-48
2022/08/10 03:01:32;;;;;;;3.63;3.15;;;;;;;16.72;69.72;102511.91;4878326;29;20053;-47
2022/08/10 03:04:06;;;;;;;5.68;3.58;;;;;;;16.69;69.74;102512.13;4877501;29;20037;-46
2022/08/10 03:06:37;;;;;;;4.35;3.63;;;;;;;16.68;70.15;102506.88;4877704;29;20069;-47
2022/08/10 03:09:06;;;;;;;5.72;3.53;;;;;;;16.71;69.65;102509.31;4878017;29;20104;-47
2022/08/10 03:11:34;;;;;;;3.20;2.90;;;;;;;16.65;70.16;102502.59;4877292;29;20036;-47
2022/08/10 03:14:02;;;;;;;4.03;3.60;;;;;;;16.59;70.84;102511.97;4878070;29;20112;-47
2022/08/10 03:16:29;;;;;;;6.75;3.50;;;;;;;16.57;70.68;102503.19;4880864;29;20033;-48
2022/08/10 03:18:57;;;;;;;3.78;3.45;;;;;;;16.55;70.60;102502.41;4880951;29;20044;-50
2022/08/10 03:21:26;;;;;;;5.32;3.78;;;;;;;16.55;70.69;102498.91;4881222;29;20032;-47
2022/08/10 03:23:53;;;;;;;4.22;3.83;;;;;;;16.52;70.80;102508.03;4881598;29;20037;-46
2022/08/10 03:26:19;;;;;;;4.57;3.75;;;;;;;16.51;70.95;102502.78;4880824;29;20108;-46
2022/08/10 03:28:45;;;;;;;7.32;3.47;;;;;;;16.50;70.90;102498.38;4881189;29;20529;-49
2022/08/10 03:31:11;;;;;;;4.90;4.20;;;;;;;16.44;71.25;102505.09;4881219;29;20033;-46
2022/08/10 03:33:40;;;;;;;5.32;3.92;;;;;;;16.42;70.84;102491.78;4880334;29;20070;-50
2022/08/10 03:36:06;;;;;;;4.97;3.97;;;;;;;16.43;70.89;102498.00;4881318;29;20056;-46
2022/08/10 03:38:32;;;;;;;3.92;3.58;;;;;;;16.38;71.41;102497.50;4881016;29;20056;-46
2022/08/10 03:41:01;;;;;;;5.85;4.20;;;;;;;16.33;71.72;102491.63;4880581;29;20037;-48
2022/08/10 03:43:28;;;;;;;5.70;3.80;;;;;;;16.32;71.62;102504.19;4880777;29;20029;-47
2022/08/10 03:45:58;;;;;;;5.28;3.70;;;;;;;16.27;72.16;102506.34;4880488;29;20069;-46
2022/08/10 03:48:26;;;;;;;5.68;4.03;;;;;;;16.23;72.11;102513.75;4880705;29;20182;-46
2022/08/10 03:50:54;;;;;;;5.00;4.23;;;;;;;16.20;72.70;102510.44;4880853;29;20076;-47
2022/08/10 03:53:20;;;;;;;6.15;4.35;;;;;;;16.20;72.21;102507.75;4880412;29;20033;-45
2022/08/10 03:55:46;;;;;;;4.63;4.22;;;;;;;16.20;72.42;102519.31;4881054;29;20035;-46
2022/08/10 03:58:12;;;;;;;4.95;4.45;;;;;;;16.19;72.21;102516.78;4880041;29;20129;-47
2022/08/10 04:00:38;;;;;;;5.00;3.90;;;;;;;16.14;71.97;102508.19;4880827;29;20053;-44
2022/08/10 04:03:04;;;;;;;5.82;3.97;;;;;;;16.13;72.96;102511.88;4880497;29;20071;-46
2022/08/10 04:05:31;;;;;;;5.78;4.15;;;;;;;16.10;73.00;102515.63;4880533;29;20069;-49
2022/08/10 04:07:56;;;;;;;4.32;3.90;;;;;;;16.13;72.41;102510.03;4880090;29;20489;-46
2022/08/10 04:10:22;;;;;;;5.57;4.15;;;;;;;16.10;72.23;102507.56;4880525;29;20029;-47
2022/08/10 04:12:47;;;;;;;7.65;4.28;;;;;;;16.08;73.01;102509.53;4879790;29;20029;-47
2022/08/10 04:15:12;;;;;;;7.30;4.43;;;;;;;16.04;73.13;102514.25;4879543;29;20041;-47
2022/08/10 04:17:38;;;;;;;6.60;4.57;;;;;;;16.04;72.85;102506.22;4879598;29;20033;-49
2022/08/10 04:20:06;;;;;;;5.60;4.40;;;;;;;16.03;72.96;102515.22;4880488;29;20029;-44
2022/08/10 04:22:32;;;;;;;5.55;4.43;;;;;;;15.99;73.43;102516.41;4880627;29;20633;-48
2022/08/10 04:25:01;;;;;;;4.72;4.25;;;;;;;15.99;73.28;102512.88;4880370;29;20104;-46
2022/08/10 04:27:28;;;;;;;8.07;4.13;;;;;;;15.95;73.44;102516.75;4879180;29;20406;-46
2022/08/10 04:29:54;;;;;;;6.55;4.45;;;;;;;15.96;73.71;102515.78;4880301;29;20037;-46
2022/08/10 04:32:21;;;;;;;7.07;4.60;;;;;;;15.96;73.49;102521.16;4880298;29;20085;-48
2022/08/10 04:34:49;;;;;;;6.88;4.45;;;;;;;15.93;73.59;102516.84;4880529;29;20024;-46
2022/08/10 04:37:18;;;;;;;7.13;4.60;;;;;;;15.91;73.92;102513.44;4879827;29;20057;-48
2022/08/10 04:39:44;;;;;;;5.20;4.65;;;;;;;15.94;73.73;102518.56;4880103;29;20029;-48
2022/08/10 04:42:09;;;;;;;6.03;4.70;;;;;;;15.93;73.79;102516.84;4879399;29;20033;-44
2022/08/10 04:44:35;;;;;;;8.90;4.60;;;;;;;15.90;74.21;102528.66;4880059;29;20117;-45
2022/08/10 04:47:00;;;;;;;5.55;4.78;;;;;;;15.93;73.61;102521.38;4879628;29;20029;-45
2022/08/10 04:49:26;;;;;;;5.43;4.13;;;;;;;15.96;73.38;102519.31;4879912;29;20029;-45
2022/08/10 04:51:51;;;;;;;5.10;4.60;;;;;;;15.94;74.22;102520.38;4879665;29;20345;-49
2022/08/10 04:54:16;;;;;;;6.27;4.87;;;;;;;15.93;74.16;102511.50;4879188;29;20029;-45
2022/08/10 04:56:42;;;;;;;5.57;5.07;;;;;;;15.94;74.10;102507.88;4879687;29;20345;-45
2022/08/10 04:59:09;;;;;;;6.43;4.90;;;;;;;15.90;74.45;102506.34;4879194;29;20297;-46
2022/08/10 05:01:36;;;;;;;5.18;4.60;;;;;;;15.91;74.62;102506.25;4879466;29;20616;-45
2022/08/10 05:04:01;;;;;;;5.85;5.25;;;;;;;15.92;74.82;102504.44;4879224;29;20056;-47
2022/08/10 05:06:27;;;;;;;8.38;5.28;;;;;;;15.95;74.56;102503.34;4879356;29;20480;-46
2022/08/10 05:08:52;;;;;;;5.45;4.88;;;;;;;15.97;74.51;102515.69;4888435;29;20053;-46
2022/08/10 05:11:17;;;;;;;6.35;5.30;;;;;;;15.96;74.75;102510.44;4882602;29;20045;-47
2022/08/10 05:13:42;;;;;;;5.95;5.30;;;;;;;15.97;74.83;102504.09;4878917;29;20067;-48
2022/08/10 05:16:08;;;;;;;7.73;5.07;;;;;;;16.01;74.68;102500.22;4879424;29;20025;-48
2022/08/10 05:18:33;;;;;;;6.32;4.75;;;;;;;15.99;75.04;102508.38;4870921;29;20302;-46
2022/08/10 05:20:58;;;;;;;5.82;5.30;;;;;;;16.00;75.05;102498.50;4875641;29;20032;-50
2022/08/10 05:23:24;;;;;;;7.88;5.20;;;;;;;16.02;75.27;102508.16;4879293;29;20502;-51
2022/08/10 05:25:49;;;;;;;5.60;5.03;;;;;;;16.04;75.42;102503.53;4878847;29;20044;-48
2022/08/10 05:28:14;;;;;;;6.65;5.75;;;;;;;16.08;75.48;102507.69;4878957;29;20029;-48
2022/08/10 05:30:40;;;;;;;6.00;5.30;;;;;;;16.10;75.40;102512.94;4879260;29;20088;-44
2022/08/10 05:33:05;;;;;;;5.53;5.03;;;;;;;16.14;75.58;102516.25;4878714;29;20336;-46
2022/08/10 05:35:31;;;;;;;8.27;5.28;;;;;;;16.17;75.44;102524.06;4878613;29;20500;-45
2022/08/10 05:37:57;;;;;;;7.18;5.63;;;;;;;16.19;75.38;102525.66;4878092;29;20032;-48
2022/08/10 05:40:23;;;;;;;6.38;5.53;;;;;;;16.23;75.41;102523.63;4878631;29;20036;-50
2022/08/10 05:42:49;;;;;;;11.05;5.85;;;;;;;16.25;75.30;102519.88;4879286;29;20032;-46
2022/08/10 05:45:26;;;;;;;6.15;5.60;;;;;;;16.31;74.68;102525.75;4878401;29;20021;-46
2022/08/10 05:47:52;;;;;;;8.77;6.00;;;;;;;16.36;75.05;102524.41;4879190;29;20400;-44
2022/08/10 05:50:20;;;;;;;8.70;5.93;;;;;;;16.42;75.11;102520.41;4878748;29;20040;-46
2022/08/10 05:52:46;;;;;;;8.33;6.03;;;;;;;16.45;74.82;102518.38;4878462;29;20045;-46
2022/08/10 05:55:11;;;;;;;8.18;5.50;;;;;;;16.50;74.91;102519.84;4878214;29;20520;-48
2022/08/10 05:57:37;;;;;;;5.90;5.30;;;;;;;16.57;74.58;102526.44;4880083;29;20049;-45
2022/08/10 06:00:07;;;;;;;6.55;5.95;;;;;;;16.62;74.72;102526.97;4880776;29;20057;-46
2022/08/10 06:02:37;;;;;;;6.32;5.72;;;;;;;16.67;74.53;102522.13;4878509;29;20029;-44
2022/08/10 06:05:09;;;;;;;9.25;6.15;;;;;;;16.72;74.59;102528.00;4878215;29;20029;-46
2022/08/10 06:07:39;;;;;;;8.70;6.15;;;;;;;16.78;74.44;102524.81;4878528;29;20039;-47
2022/08/10 06:10:08;;;;;;;6.70;6.10;;;;;;;16.88;74.20;102525.00;4878177;29;20037;-46
2022/08/10 06:12:34;;;;;;;12.60;6.70;;;;;;;16.94;74.19;102523.69;4878752;29;20029;-47
2022/08/10 06:15:01;;;;;;;7.25;6.55;;;;;;;16.93;74.09;102525.50;4878780;29;20033;-45
2022/08/10 06:17:30;;;;;;;11.07;6.88;;;;;;;16.97;73.57;102518.94;4877046;29;20032;-46
2022/08/10 06:19:57;;;;;;;7.63;6.70;;;;;;;17.01;73.68;102522.25;4877064;29;20044;-46
2022/08/10 06:22:25;;;;;;;7.43;6.72;;;;;;;17.06;73.75;102525.41;4883500;29;20051;-44
2022/08/10 06:24:52;;;;;;;7.78;6.85;;;;;;;17.13;73.50;102525.81;4877920;29;20033;-46
2022/08/10 06:27:18;;;;;;;7.60;6.90;;;;;;;17.20;73.48;102521.66;4878122;29;20112;-46
2022/08/10 06:29:45;;;;;;;7.80;6.93;;;;;;;17.28;73.30;102529.97;4878286;29;20056;-44
2022/08/10 06:32:12;;;;;;;8.57;7.00;;;;;;;17.36;72.74;102529.38;4877712;29;20032;-46
2022/08/10 06:34:42;;;;;;;9.63;7.20;;;;;;;17.44;72.20;102526.09;4878291;29;20491;-44
2022/08/10 06:37:08;;;;;;;9.38;6.93;;;;;;;17.55;71.79;102523.38;4872885;29;20084;-44
2022/08/10 06:39:34;;;;;;;9.00;6.80;;;;;;;17.66;71.39;102519.84;4878084;29;20366;-46
2022/08/10 06:42:34;;;;;;;8.10;6.75;;;;;;;17.82;70.82;102523.03;4878258;29;20058;-44
2022/08/10 06:45:02;;;;;;;14.48;6.93;;;;;;;18.00;70.34;102514.44;4877653;29;20120;-47
2022/08/10 06:47:38;;;;;;;8.38;6.90;;;;;;;18.13;70.10;102520.53;4877672;29;20104;-47
2022/08/10 06:50:15;;;;;;;9.00;6.88;;;;;;;18.26;69.75;102523.06;4878896;29;20025;-45
2022/08/10 06:52:42;;;;;;;7.28;6.60;;;;;;;18.40;68.80;102521.91;4881037;29;20391;-49
2022/08/10 06:55:12;;;;;;;9.27;6.90;;;;;;;18.49;68.32;102522.00;4880264;29;20029;-44
2022/08/10 06:57:39;;;;;;;7.28;6.53;;;;;;;18.59;68.01;102522.09;4880262;29;20029;-47
2022/08/10 07:00:06;;;;;;;8.98;6.40;;;;;;;18.74;67.57;102521.78;4880309;29;20025;-46
2022/08/10 07:02:44;;;;;;;11.10;6.45;;;;;;;18.87;67.72;102519.78;4881913;29;20053;-45
2022/08/10 07:05:16;;;;;;;7.03;5.95;;;;;;;19.05;66.57;102528.09;4880926;29;20430;-47
2022/08/10 07:07:42;;;;;;;7.22;6.15;;;;;;;19.19;66.13;102535.84;4881752;29;20036;-47
2022/08/10 07:10:09;;;;;;;8.07;5.55;;;;;;;19.33;65.68;102529.25;4881370;29;20104;-45
2022/08/10 07:12:37;;;;;;;8.15;6.03;;;;;;;19.60;64.79;102533.19;4881543;29;20040;-56
2022/08/10 07:15:05;;;;;;;7.22;5.97;;;;;;;19.87;64.04;102531.78;4887306;29;20065;-47
2022/08/10 07:17:32;;;;;;;8.50;6.18;;;;;;;20.19;63.48;102530.72;4886663;29;20037;-45
2022/08/10 07:19:59;;;;;;;5.93;5.32;;;;;;;20.42;62.48;102526.75;4881023;29;20051;-50
2022/08/10 07:22:29;;;;;;;7.07;5.82;;;;;;;20.62;60.94;102529.47;4880674;29;20485;-49
2022/08/10 07:24:57;;;;;;;6.43;5.32;;;;;;;20.91;59.92;102532.16;4880414;29;20064;-46
2022/08/10 07:27:24;;;;;;;7.25;5.68;;;;;;;21.03;59.64;102536.41;4880683;29;20033;-49
2022/08/10 07:29:50;;;;;;;10.00;5.65;;;;;;;21.29;58.86;102534.94;4871027;29;20025;-46
2022/08/10 07:32:18;;;;;;;9.15;5.30;;;;;;;21.57;57.23;102538.56;4879575;29;20100;-46
2022/08/10 07:34:45;;;;;;;7.05;5.22;;;;;;;21.85;56.94;102528.59;4879818;29;20025;-45
2022/08/10 07:37:12;;;;;;;8.90;5.63;;;;;;;22.06;55.49;102539.13;4880082;29;20119;-45
2022/08/10 07:39:41;;;;;;;7.00;5.05;;;;;;;22.24;55.18;102541.03;4881173;29;20028;-47
2022/08/10 07:42:10;;;;;;;8.23;5.15;;;;;;;22.70;54.30;102537.25;4878529;29;20028;-45
2022/08/10 07:44:38;;;;;;;10.55;5.65;;;;;;;22.92;53.83;102535.91;4879630;29;20036;-48
2022/08/10 07:47:07;;;;;;;9.33;5.30;;;;;;;23.14;52.27;102536.41;4880024;29;20044;-45
2022/08/10 07:49:39;;;;;;;9.27;5.20;;;;;;;23.35;52.15;102537.88;4877945;29;20025;-46
2022/08/10 07:52:06;;;;;;;5.47;4.97;;;;;;;23.64;50.96;102532.94;4878997;29;20410;-46
2022/08/10 07:54:39;;;;;;;9.20;5.60;;;;;;;23.80;50.17;102529.47;4883267;29;20046;-45
2022/08/10 07:57:08;;;;;;;9.70;5.10;;;;;;;24.09;49.31;102530.91;4883515;29;20043;-51
2022/08/10 07:59:36;;;;;;;8.45;5.03;;;;;;;24.29;49.01;102522.47;4879333;29;20124;-45
2022/08/10 08:02:05;;;;;;;10.63;5.00;;;;;;;24.52;48.31;102531.66;4880241;29;20053;-48
2022/08/10 08:04:32;;;;;;;5.57;4.50;;;;;;;24.79;48.01;102535.09;4878170;29;20301;-50
2022/08/10 08:06:59;;;;;;;4.93;4.43;;;;;;;25.08;47.91;102534.56;4876313;29;20029;-48
2022/08/10 08:09:27;;;;;;;9.05;5.35;;;;;;;25.32;46.95;102531.97;4879559;29;20059;-47
2022/08/10 08:11:53;;;;;;;5.73;5.10;;;;;;;25.49;45.98;102529.00;4878514;29;20029;-49
2022/08/10 08:14:21;;;;;;;5.95;5.05;;;;;;;25.72;45.07;102524.69;4882964;29;20064;-47
2022/08/10 08:16:50;;;;;;;5.03;4.53;;;;;;;25.85;44.56;102524.97;4882780;29;20040;-51
2022/08/10 08:19:18;;;;;;;6.05;4.07;;;;;;;26.08;44.08;102532.31;4879520;29;20029;-48
2022/08/10 08:21:44;;;;;;;8.38;4.13;;;;;;;26.17;43.99;102534.81;4880035;29;20041;-50
2022/08/10 08:24:13;;;;;;;7.45;4.18;;;;;;;26.39;44.20;102526.84;4880575;29;20556;-50
2022/08/10 08:26:40;;;;;;;7.00;4.30;;;;;;;26.66;43.14;102530.06;4879922;29;20452;-52
2022/08/10 08:29:08;;;;;;;7.18;4.55;;;;;;;26.79;42.67;102537.63;4880714;29;20493;-53
2022/08/10 08:31:34;;;;;;;6.93;4.90;;;;;;;27.05;42.43;102527.13;4876157;29;20033;-51
2022/08/10 08:34:01;;;;;;;7.25;5.00;;;;;;;27.22;42.18;102535.16;4870278;29;20470;-50
2022/08/10 08:36:28;;;;;;;8.77;4.72;;;;;;;27.35;41.63;102524.47;4878929;29;20033;-52
2022/08/10 08:38:54;;;;;;;7.95;4.60;;;;;;;27.67;40.17;102525.09;4876923;29;20105;-51
2022/08/10 08:42:01;;;;;;;9.48;4.97;;;;;;;27.95;42.07;102529.88;4879406;29;20461;-51
2022/08/10 08:44:32;;;;;;;8.73;4.72;;;;;;;27.91;40.88;102523.03;4857296;29;20053;-50
2022/08/10 08:47:06;;;;;;;6.53;4.53;;;;;;;28.30;39.69;102525.41;4878489;29;20517;-51
2022/08/10 08:50:00;;;;;;;7.70;3.95;;;;;;;28.63;39.85;102522.16;4868842;29;20033;-52
2022/08/10 08:52:42;;;;;;;5.00;4.47;;;;;;;28.66;38.53;102524.50;4881923;29;20136;-53
2022/08/10 08:55:47;;;;;;;6.10;4.80;;;;;;;28.78;39.09;102517.44;4879516;29;20029;-53
2022/08/10 08:58:27;;;;;;;5.63;4.25;;;;;;;28.95;39.82;102523.44;4868532;29;20082;-57
2022/08/10 09:01:16;;;;;;;4.90;4.40;;;;;;;29.20;38.17;102520.28;4875680;29;20037;-54
2022/08/10 09:03:57;;;;;;;8.18;4.80;;;;;;;29.44;38.61;102516.19;4881910;29;20032;-55
2022/08/10 09:07:07;;;;;;;6.10;4.28;;;;;;;29.60;38.46;102514.16;4880862;29;20029;-55
2022/08/10 09:09:51;;;;;;;7.55;4.40;;;;;;;29.62;37.24;102512.88;4882523;29;20029;-53
2022/08/10 09:12:34;;;;;;;8.18;4.03;;;;;;;29.96;36.22;102510.28;4882533;29;20033;-54
2022/08/10 09:15:25;;;;;;;4.90;4.40;;;;;;;30.39;37.69;102505.34;4880313;29;20021;-54
2022/08/10 09:18:09;;;;;;;7.60;4.68;;;;;;;30.44;34.85;102501.97;4883727;29;20051;-54
2022/08/10 09:20:54;;;;;;;7.93;4.20;;;;;;;30.58;35.05;102498.16;4881783;29;20346;-54
2022/08/10 09:23:33;;;;;;;7.20;4.30;;;;;;;30.80;34.90;102501.50;4883003;29;20040;-54
2022/08/10 09:26:02;;;;;;;6.15;4.35;;;;;;;30.89;34.18;102502.13;4882657;29;20036;-54
2022/08/10 09:28:36;;;;;;;6.13;4.10;;;;;;;31.05;33.63;102500.03;4882349;29;20401;-55
2022/08/10 09:31:05;;;;;;;9.10;3.40;;;;;;;31.32;32.47;102490.66;4882827;29;20036;-53
2022/08/10 09:33:51;;;;;;;5.93;4.30;;;;;;;31.52;34.17;102487.84;4882967;29;20029;-55
2022/08/10 09:36:29;;;;;;;9.60;3.90;;;;;;;31.64;33.14;102490.78;4882068;29;20021;-54
2022/08/10 09:39:01;;;;;;;4.20;3.67;;;;;;;31.76;32.76;102482.69;4882995;29;20029;-55
2022/08/10 09:41:53;;;;;;;5.10;3.83;;;;;;;31.84;33.48;102484.31;4882358;29;20068;-55
2022/08/10 09:44:30;;;;;;;6.10;3.60;;;;;;;31.87;32.63;102481.13;4874110;29;20065;-54
2022/08/10 09:47:24;;;;;;;6.50;3.97;;;;;;;31.84;32.45;102487.06;4882127;29;20041;-55
2022/08/10 09:50:04;;;;;;;3.95;3.45;;;;;;;32.10;32.63;102477.84;4881469;29;20029;-54
2022/08/10 09:52:42;;;;;;;7.25;3.55;;;;;;;32.11;31.89;102479.53;4882924;29;20045;-55
2022/08/10 09:55:26;;;;;;;3.92;3.10;;;;;;;32.16;31.11;102476.94;4882548;29;20388;-56
2022/08/10 09:58:26;;;;;;;6.03;3.80;;;;;;;32.62;32.69;102472.97;4881928;29;20442;-55
2022/08/10 10:01:17;;;;;;;5.60;3.20;;;;;;;32.81;31.62;102467.53;4881316;29;20029;-54
2022/08/10 10:04:17;;;;;;;7.43;3.78;;;;;;;32.84;30.49;102469.78;4883424;29;20044;-52
2022/08/10 10:06:52;;;;;;;3.45;3.00;;;;;;;33.08;29.72;102461.72;4881363;29;20081;-55
2022/08/10 10:09:32;;;;;;;5.70;3.70;;;;;;;33.03;30.17;102456.91;4883733;29;20107;-56
2022/08/10 10:12:25;;;;;;;5.88;3.08;;;;;;;33.10;30.51;102456.81;4880759;29;20040;-55
2022/08/10 10:15:30;;;;;;;6.57;3.50;;;;;;;33.19;30.32;102460.97;4880882;29;20500;-56
2022/08/10 10:18:01;;;;;;;4.38;3.17;;;;;;;33.21;29.14;102447.81;4881569;29;20031;-55
2022/08/10 10:20:54;;;;;;;7.60;3.22;;;;;;;33.50;29.97;102446.16;4883019;29;20029;-55
2022/08/10 10:23:28;;;;;;;8.57;2.75;;;;;;;33.54;28.21;102441.00;4882503;29;20461;-53
2022/08/10 10:26:05;;;;;;;5.03;2.70;;;;;;;33.81;28.12;102433.25;4884448;29;20037;-53
2022/08/10 10:28:34;;;;;;;5.70;3.22;;;;;;;33.97;27.27;102426.19;4888222;29;20537;-55
2022/08/10 10:31:23;;;;;;;3.15;2.67;;;;;;;33.88;26.47;102438.66;4886783;29;20032;-54
2022/08/10 10:34:10;;;;;;;7.18;2.80;;;;;;;34.00;28.01;102419.38;4887352;29;20033;-56
2022/08/10 10:36:38;;;;;;;5.53;2.28;;;;;;;34.15;26.96;102421.66;4887588;29;20115;-53
2022/08/10 10:39:05;;;;;;;9.25;2.55;;;;;;;34.19;24.96;102420.97;4888479;29;20048;-55
2022/08/10 10:41:48;;;;;;;4.93;2.35;;;;;;;34.23;26.31;102427.69;4888497;29;20040;-55
2022/08/10 10:44:32;;;;;;;6.85;2.38;;;;;;;34.26;26.53;102415.38;4877047;29;20051;-56
2022/08/10 10:47:32;;;;;;;3.72;2.00;;;;;;;34.18;26.33;102419.28;4883354;29;20036;-55
2022/08/10 10:50:17;;;;;;;3.72;2.20;;;;;;;34.43;26.36;102410.78;4891460;29;20033;-47
2022/08/10 10:53:11;;;;;;;5.00;2.20;;;;;;;34.39;25.91;102400.47;4896981;29;20057;-47
2022/08/10 10:55:44;;;;;;;4.65;1.98;;;;;;;34.44;24.71;102409.72;4887255;29;20029;-47
2022/08/10 10:58:21;;;;;;;4.85;2.30;;;;;;;34.40;24.05;102402.16;4886913;29;20033;-46
2022/08/10 11:01:09;;;;;;;5.78;2.38;;;;;;;34.47;24.32;102392.69;4887437;29;20053;-44
2022/08/10 11:03:49;;;;;;;2.30;2.05;;;;;;;34.43;24.17;102397.00;4886562;29;20035;-48
2022/08/10 11:06:42;;;;;;;5.38;2.40;;;;;;;34.63;25.15;102391.09;4886598;29;20033;-46
2022/08/10 11:09:17;;;;;;;8.18;2.00;;;;;;;34.81;24.46;102383.78;4881782;29;20029;-50
2022/08/10 11:11:45;;;;;;;2.88;1.95;;;;;;;34.84;22.73;102377.75;4881605;29;20060;-49
2022/08/10 11:14:26;;;;;;;5.90;2.33;;;;;;;34.98;24.44;102383.84;4881030;29;20156;-50
2022/08/10 11:16:58;;;;;;;4.63;2.10;;;;;;;34.66;23.67;102381.50;4879448;29;20033;-49
2022/08/10 11:19:35;;;;;;;4.88;2.33;;;;;;;34.90;23.48;102374.03;4878975;29;20453;-48
2022/08/10 11:22:11;;;;;;;2.58;2.13;;;;;;;34.96;22.19;102363.94;4879219;29;20290;-49
2022/08/10 11:24:40;;;;;;;5.97;2.20;;;;;;;35.02;22.51;102373.97;4880276;29;20149;-46
2022/08/10 11:27:30;;;;;;;3.70;2.08;;;;;;;35.12;23.89;102365.91;4874020;29;20494;-47
2022/08/10 11:30:05;;;;;;;4.00;2.08;;;;;;;35.30;23.77;102364.06;4879378;29;20572;-50
2022/08/10 11:33:16;;;;;;;6.28;2.38;;;;;;;35.49;23.54;102375.72;4878997;29;20117;-46
2022/08/10 11:35:49;;;;;;;2.78;1.90;;;;;;;35.27;22.58;102370.06;4839743;29;20490;-47
2022/08/10 11:38:44;;;;;;;4.60;2.17;;;;;;;35.41;23.74;102357.66;4841470;29;20041;-48
2022/08/10 11:41:26;;;;;;;5.97;2.15;;;;;;;35.39;22.23;102370.84;4871471;29;20049;-48
2022/08/10 11:44:03;;;;;;;6.75;2.03;;;;;;;35.37;23.09;102360.06;4862536;29;20116;-47
2022/08/10 11:46:32;;;;;;;7.13;2.33;;;;;;;35.24;21.93;102362.28;4880168;29;20025;-47